createdAt,value
2022-08-17T00:01:18.220Z,18.80
2022-08-17T00:05:05.642Z,18.80
2022-08-17T00:08:49.413Z,18.80
2022-08-17T00:12:51.218Z,18.80
2022-08-17T00:16:55.828Z,18.70
2022-08-17T00:20:38.881Z,18.80
2022-08-17T00:24:21.981Z,18.80
2022-08-17T00:28:06.419Z,18.80
2022-08-17T00:31:49.928Z,18.70
2022-08-17T00:35:32.837Z,18.60
2022-08-17T00:39:15.329Z,18.60
2022-08-17T00:42:57.938Z,18.50
2022-08-17T00:46:43.608Z,18.50
2022-08-17T00:50:26.079Z,18.50
2022-08-17T00:54:13.146Z,18.50
2022-08-17T00:58:06.776Z,18.40
2022-08-17T01:01:51.789Z,18.40
2022-08-17T01:05:38.738Z,18.30
2022-08-17T01:09:25.980Z,18.20
2022-08-17T01:13:09.065Z,18.20
2022-08-17T01:16:55.650Z,18.20
2022-08-17T01:20:48.101Z,18.10
2022-08-17T01:24:34.142Z,18.00
2022-08-17T01:28:33.600Z,17.90
2022-08-17T01:32:20.550Z,17.90
2022-08-17T01:36:03.572Z,17.80
2022-08-17T01:39:52.796Z,17.80
2022-08-17T01:43:42.478Z,17.70
2022-08-17T01:47:25.216Z,17.70
2022-08-17T01:51:08.591Z,17.70
2022-08-17T01:54:53.453Z,17.70
2022-08-17T01:58:37.560Z,17.70
2022-08-17T02:02:30.953Z,17.70
2022-08-17T02:06:27.260Z,17.70
2022-08-17T02:10:19.888Z,17.90
2022-08-17T02:14:03.996Z,18.00
2022-08-17T02:17:46.513Z,18.10
2022-08-17T02:21:29.581Z,18.20
2022-08-17T02:25:17.865Z,18.20
2022-08-17T02:29:00.521Z,18.30
2022-08-17T02:32:43.217Z,18.40
2022-08-17T02:36:27.519Z,18.50
2022-08-17T02:40:11.773Z,18.60
2022-08-17T02:43:57.182Z,18.70
2022-08-17T02:47:40.550Z,18.80
2022-08-17T02:51:23.583Z,18.80
2022-08-17T02:55:07.314Z,18.70
2022-08-17T02:58:50.095Z,18.60
2022-08-17T03:02:39.144Z,18.60
2022-08-17T03:06:21.817Z,18.60
2022-08-17T03:10:06.005Z,18.60
2022-08-17T03:13:48.834Z,18.60
2022-08-17T03:17:32.968Z,18.60
2022-08-17T03:21:15.680Z,18.60
2022-08-17T03:24:58.478Z,18.60
2022-08-17T03:28:41.501Z,18.70
2022-08-17T03:32:23.941Z,18.90
2022-08-17T03:36:08.678Z,19.00
2022-08-17T03:39:51.230Z,19.10
2022-08-17T03:43:35.159Z,19.10
2022-08-17T03:47:35.093Z,18.90
2022-08-17T03:51:41.124Z,18.70
2022-08-17T03:55:40.897Z,18.50
2022-08-17T03:59:24.078Z,18.40
2022-08-17T04:03:09.070Z,18.30
2022-08-17T04:06:52.933Z,18.30
2022-08-17T04:10:44.828Z,18.40
2022-08-17T04:14:27.750Z,18.50
2022-08-17T04:18:11.054Z,18.50
2022-08-17T04:21:55.064Z,18.60
2022-08-17T04:25:40.148Z,18.70
2022-08-17T04:29:23.297Z,18.80
2022-08-17T04:33:08.781Z,19.00
2022-08-17T04:36:52.565Z,19.10
2022-08-17T04:40:53.920Z,19.30
2022-08-17T04:44:37.720Z,19.40
2022-08-17T04:48:20.772Z,19.70
2022-08-17T04:52:04.704Z,19.80
2022-08-17T04:55:49.027Z,19.90
2022-08-17T04:59:31.846Z,20.00
2022-08-17T05:03:14.681Z,20.00
2022-08-17T05:06:57.607Z,20.10
2022-08-17T05:10:45.523Z,20.20
2022-08-17T05:14:32.880Z,20.30
2022-08-17T05:18:17.808Z,20.30
2022-08-17T05:22:00.525Z,20.30
2022-08-17T05:25:47.502Z,20.40
2022-08-17T05:29:35.277Z,20.40
2022-08-17T05:33:20.410Z,20.40
2022-08-17T05:37:03.214Z,20.60
2022-08-17T05:40:46.023Z,20.90
2022-08-17T05:44:28.613Z,21.10
2022-08-17T05:48:13.178Z,21.40
2022-08-17T05:52:14.787Z,21.60
2022-08-17T05:56:29.562Z,21.70
2022-08-17T06:00:20.197Z,21.60
2022-08-17T06:04:17.553Z,21.50
2022-08-17T06:08:10.385Z,21.50
2022-08-17T06:12:00.280Z,21.60
2022-08-17T06:15:56.296Z,21.90
2022-08-17T06:19:43.402Z,22.10
2022-08-17T06:23:30.688Z,22.20
2022-08-17T06:27:19.473Z,22.60
2022-08-17T06:31:09.986Z,23.10
2022-08-17T06:34:55.190Z,23.50
2022-08-17T06:38:49.868Z,23.40
2022-08-17T06:42:58.809Z,23.20
2022-08-17T06:46:48.587Z,23.20
2022-08-17T06:50:37.525Z,23.20
2022-08-17T06:54:31.390Z,22.90
2022-08-17T06:58:16.963Z,23.30
2022-08-17T07:02:05.817Z,23.80
2022-08-17T07:05:53.690Z,23.60
2022-08-17T07:09:38.465Z,23.50
2022-08-17T07:13:30.683Z,23.30
2022-08-17T07:17:17.261Z,22.80
2022-08-17T07:21:11.956Z,22.90
2022-08-17T07:24:58.598Z,23.20
2022-08-17T07:28:41.209Z,23.50
2022-08-17T07:32:31.490Z,23.50
2022-08-17T07:36:30.049Z,23.70
2022-08-17T07:40:26.958Z,23.80
2022-08-17T07:44:14.380Z,23.70
2022-08-17T07:48:16.717Z,23.60
2022-08-17T07:52:48.196Z,23.40
2022-08-17T07:56:07.929Z,23.30
2022-08-17T08:00:27.273Z,23.30
2022-08-17T08:08:42.185Z,23.10
2022-08-17T08:12:34.041Z,23.10
2022-08-17T08:16:25.270Z,22.80
2022-08-17T08:20:52.348Z,22.80
2022-08-17T08:24:26.375Z,22.70
2022-08-17T08:28:27.177Z,22.70
2022-08-17T08:32:19.027Z,22.70
2022-08-17T08:36:10.706Z,22.50
2022-08-17T08:40:04.486Z,22.10
2022-08-17T08:43:55.044Z,22.00
2022-08-17T08:47:58.201Z,21.80
2022-08-17T08:51:55.412Z,22.00
2022-08-17T08:55:49.027Z,22.20
2022-08-17T08:59:36.270Z,22.40
2022-08-17T09:03:52.462Z,22.30
2022-08-17T09:07:44.159Z,22.50
2022-08-17T09:11:35.556Z,22.60
2022-08-17T09:15:44.813Z,22.50
2022-08-17T09:19:43.712Z,22.40
2022-08-17T09:23:33.392Z,22.40
2022-08-17T09:27:21.428Z,22.40
2022-08-17T09:31:09.905Z,22.30
2022-08-17T09:34:55.357Z,22.40
2022-08-17T09:38:46.039Z,22.40
2022-08-17T09:42:33.777Z,22.30
2022-08-17T09:46:20.699Z,22.10
2022-08-17T09:50:11.458Z,21.90
2022-08-17T09:53:54.322Z,21.70
2022-08-17T09:57:47.301Z,21.80
2022-08-17T10:01:35.487Z,21.50
2022-08-17T10:05:22.989Z,21.60
2022-08-17T10:09:15.349Z,21.50
2022-08-17T10:13:06.360Z,21.00
2022-08-17T10:17:01.642Z,21.20
2022-08-17T10:20:50.836Z,21.40
2022-08-17T10:25:21.026Z,21.40
2022-08-17T10:29:01.602Z,21.40
2022-08-17T10:32:49.601Z,21.50
2022-08-17T10:36:46.489Z,21.50
2022-08-17T10:40:36.674Z,21.70
2022-08-17T10:44:39.397Z,21.60
2022-08-17T10:48:30.150Z,21.60
2022-08-17T10:52:46.084Z,22.10
2022-08-17T10:56:45.843Z,22.50
2022-08-17T11:01:03.840Z,22.80
2022-08-17T11:05:04.890Z,22.80
2022-08-17T11:09:14.458Z,23.10
2022-08-17T11:13:06.238Z,23.30
2022-08-17T11:17:07.241Z,23.80
2022-08-17T11:21:22.123Z,24.80
2022-08-17T11:25:16.689Z,25.10
2022-08-17T11:29:03.586Z,25.30
2022-08-17T11:32:54.576Z,25.60
2022-08-17T11:37:05.696Z,25.80
2022-08-17T11:41:08.166Z,25.60
2022-08-17T11:44:55.510Z,25.80
2022-08-17T11:49:05.512Z,25.70
2022-08-17T11:52:50.556Z,25.50
2022-08-17T11:56:41.130Z,25.30
2022-08-17T12:00:51.389Z,25.20
2022-08-17T12:04:37.004Z,24.70
2022-08-17T12:08:21.580Z,24.70
2022-08-17T12:12:14.343Z,24.70
2022-08-17T12:15:59.361Z,24.70
2022-08-17T12:19:44.541Z,24.70
2022-08-17T12:23:35.205Z,24.50
2022-08-17T12:27:59.719Z,24.30
2022-08-17T12:31:30.485Z,24.40
2022-08-17T12:35:29.621Z,24.30
2022-08-17T12:39:14.860Z,24.90
2022-08-17T12:43:06.747Z,25.40
2022-08-17T12:46:53.542Z,25.60
2022-08-17T12:50:40.416Z,25.70
2022-08-17T12:54:29.022Z,26.00
2022-08-17T12:58:14.765Z,26.40
2022-08-17T13:01:57.514Z,26.80
2022-08-17T13:05:43.712Z,26.90
2022-08-17T13:09:33.556Z,27.20
2022-08-17T13:13:25.430Z,27.20
2022-08-17T13:17:13.320Z,27.40
2022-08-17T13:21:00.072Z,27.60
2022-08-17T13:24:54.285Z,27.20
2022-08-17T13:28:37.755Z,27.50
2022-08-17T13:32:23.946Z,27.70
2022-08-17T13:36:12.715Z,27.50
2022-08-17T13:40:36.586Z,27.80
2022-08-17T13:44:32.513Z,28.00
2022-08-17T13:48:23.135Z,28.20
2022-08-17T13:52:08.837Z,28.20
2022-08-17T13:55:56.047Z,27.80
2022-08-17T13:59:54.299Z,27.20
2022-08-17T14:03:38.521Z,27.10
2022-08-17T14:07:30.872Z,27.10
2022-08-17T14:11:13.230Z,27.20
2022-08-17T14:14:57.325Z,27.20
2022-08-17T14:18:56.241Z,27.60
2022-08-17T14:22:45.026Z,27.60
2022-08-17T14:26:27.709Z,27.90
2022-08-17T14:30:11.292Z,27.60
2022-08-17T14:33:54.087Z,27.70
2022-08-17T14:37:37.087Z,27.60
2022-08-17T14:41:23.535Z,27.40
2022-08-17T14:45:07.478Z,27.50
2022-08-17T14:49:11.011Z,27.30
2022-08-17T14:52:55.115Z,27.20
2022-08-17T14:56:39.398Z,27.60
2022-08-17T15:00:22.068Z,27.90
2022-08-17T15:04:04.866Z,28.10
2022-08-17T15:07:47.660Z,28.20
2022-08-17T15:11:30.609Z,28.50
2022-08-17T15:15:16.803Z,28.40
2022-08-17T15:19:00.225Z,28.60
2022-08-17T15:22:43.925Z,28.60
2022-08-17T15:26:27.027Z,28.80
2022-08-17T15:30:11.708Z,28.80
2022-08-17T15:33:56.138Z,28.60
2022-08-17T15:37:40.155Z,28.30
2022-08-17T15:41:22.921Z,28.40
2022-08-17T15:45:08.360Z,28.40
2022-08-17T15:48:53.686Z,28.30
2022-08-17T15:52:40.275Z,28.40
2022-08-17T15:56:23.676Z,28.50
2022-08-17T16:00:08.827Z,28.40
2022-08-17T16:04:06.511Z,28.10
2022-08-17T16:07:52.067Z,27.90
2022-08-17T16:11:35.090Z,27.60
2022-08-17T16:15:18.624Z,27.30
2022-08-17T16:19:01.485Z,26.90
2022-08-17T16:22:46.481Z,26.70
2022-08-17T16:26:33.374Z,26.60
2022-08-17T16:30:17.900Z,26.40
2022-08-17T16:34:16.935Z,26.30
2022-08-17T16:38:00.911Z,26.20
2022-08-17T16:41:46.145Z,26.00
2022-08-17T16:45:40.247Z,25.90
2022-08-17T16:49:35.490Z,25.70
2022-08-17T16:53:21.204Z,25.70
2022-08-17T16:57:05.525Z,25.50
2022-08-17T17:00:48.970Z,25.30
2022-08-17T17:04:35.368Z,25.10
2022-08-17T17:08:25.583Z,24.90
2022-08-17T17:12:18.709Z,24.80
2022-08-17T17:16:30.347Z,24.70
2022-08-17T17:20:21.746Z,24.50
2022-08-17T17:24:10.464Z,24.40
2022-08-17T17:28:02.286Z,24.20
2022-08-17T17:31:52.413Z,23.90
2022-08-17T17:35:43.522Z,23.90
2022-08-17T17:39:36.199Z,23.80
2022-08-17T17:43:40.676Z,23.60
2022-08-17T17:47:24.035Z,23.60
2022-08-17T17:51:14.967Z,23.50
2022-08-17T17:55:32.861Z,23.40
2022-08-17T17:59:44.021Z,23.40
2022-08-17T18:03:38.214Z,23.20
2022-08-17T18:07:31.026Z,23.10
2022-08-17T18:11:33.076Z,23.00
2022-08-17T18:15:31.380Z,23.00
2022-08-17T18:19:16.167Z,23.00
2022-08-17T18:22:58.761Z,22.90
2022-08-17T18:26:44.693Z,22.90
2022-08-17T18:30:29.866Z,22.80
2022-08-17T18:34:45.850Z,22.70
2022-08-17T18:38:33.637Z,22.60
2022-08-17T18:42:26.300Z,22.40
2022-08-17T18:46:29.495Z,22.30
2022-08-17T18:50:24.367Z,22.10
2022-08-17T18:54:20.238Z,21.90
2022-08-17T18:58:17.133Z,21.80
2022-08-17T19:02:41.792Z,21.70
2022-08-17T19:06:32.631Z,21.70
2022-08-17T19:10:21.708Z,21.60
2022-08-17T19:14:09.018Z,21.50
2022-08-17T19:17:57.260Z,21.40
2022-08-17T19:21:44.635Z,21.40
2022-08-17T19:25:31.909Z,21.30
2022-08-17T19:29:22.299Z,21.30
2022-08-17T19:33:06.884Z,21.40
2022-08-17T19:36:57.535Z,21.40
2022-08-17T19:40:54.043Z,21.30
2022-08-17T19:44:57.508Z,21.30
2022-08-17T19:48:47.355Z,21.30
2022-08-17T19:52:47.713Z,21.40
2022-08-17T19:56:39.173Z,21.40
2022-08-17T20:00:21.644Z,21.30
2022-08-17T20:04:12.286Z,21.30
2022-08-17T20:07:59.165Z,21.30
2022-08-17T20:11:47.653Z,21.30
2022-08-17T20:15:34.445Z,21.30
2022-08-17T20:19:32.489Z,21.30
2022-08-17T20:23:40.484Z,21.30
2022-08-17T20:27:31.789Z,21.40
2022-08-17T20:31:44.625Z,21.50
2022-08-17T20:35:30.911Z,21.50
2022-08-17T20:39:32.281Z,21.50
2022-08-17T20:43:49.041Z,21.50
2022-08-17T20:47:34.989Z,21.50
2022-08-17T20:51:28.338Z,21.50
2022-08-17T20:55:52.403Z,21.40
2022-08-17T20:59:57.782Z,21.40
2022-08-17T21:03:52.349Z,21.40
2022-08-17T21:07:57.888Z,21.40
2022-08-17T21:12:05.566Z,21.40
2022-08-17T21:15:58.861Z,21.40
2022-08-17T21:20:10.511Z,21.50
2022-08-17T21:24:14.407Z,21.50
2022-08-17T21:28:08.363Z,21.50
2022-08-17T21:32:18.474Z,21.50
2022-08-17T21:36:27.574Z,21.50
2022-08-17T21:40:25.799Z,21.50
2022-08-17T21:44:19.213Z,21.50
2022-08-17T21:48:13.995Z,21.50
2022-08-17T21:51:57.645Z,21.60
2022-08-17T21:55:41.780Z,21.60
2022-08-17T21:59:28.843Z,21.50
2022-08-17T22:03:24.250Z,21.50
2022-08-17T22:07:09.078Z,21.50
2022-08-17T22:11:01.760Z,21.60
2022-08-17T22:14:51.749Z,21.50
2022-08-17T22:18:37.246Z,21.50
2022-08-17T22:22:28.848Z,21.50
2022-08-17T22:26:16.481Z,21.50
2022-08-17T22:30:00.458Z,21.50
2022-08-17T22:33:46.856Z,21.30
2022-08-17T22:53:16.274Z,19.20
2022-08-17T22:57:22.544Z,18.80
2022-08-17T23:01:28.168Z,18.70
2022-08-17T23:05:22.789Z,18.60
2022-08-17T23:09:08.191Z,18.60
2022-08-17T23:12:50.960Z,18.70
2022-08-17T23:16:33.720Z,18.70
2022-08-17T23:20:17.543Z,18.80
2022-08-17T23:24:00.700Z,18.80
2022-08-17T23:27:45.121Z,18.80
2022-08-17T23:31:28.009Z,18.90
2022-08-17T23:35:11.185Z,18.80
2022-08-17T23:38:54.472Z,18.80
2022-08-17T23:42:39.808Z,18.90
2022-08-17T23:46:30.140Z,18.90
2022-08-17T23:50:13.352Z,18.90
2022-08-17T23:53:58.739Z,18.80
2022-08-17T23:57:41.929Z,18.80
